sensor_id;sensor_type;location;lat;lon;timestamp;temperature;humidity
10964;DHT22;5534;48.784;9.190;2022-08-25T00:01:37;24.10;99.90
10964;DHT22;5534;48.784;9.190;2022-08-25T00:04:06;23.80;99.90
10964;DHT22;5534;48.784;9.190;2022-08-25T00:06:35;23.80;99.90
10964;DHT22;5534;48.784;9.190;2022-08-25T00:09:00;23.90;99.90
10964;DHT22;5534;48.784;9.190;2022-08-25T00:11:29;23.90;99.90
10964;DHT22;5534;48.784;9.190;2022-08-25T00:13:59;24.00;99.90
10964;DHT22;5534;48.784;9.190;2022-08-25T00:16:26;23.90;99.90
10964;DHT22;5534;48.784;9.190;2022-08-25T00:18:57;23.50;99.90
10964;DHT22;5534;48.784;9.190;2022-08-25T00:21:24;23.50;99.90
10964;DHT22;5534;48.784;9.190;2022-08-25T00:23:50;23.40;99.90
10964;DHT22;5534;48.784;9.190;2022-08-25T00:26:17;23.30;99.90
10964;DHT22;5534;48.784;9.190;2022-08-25T00:28:43;23.40;99.90
10964;DHT22;5534;48.784;9.190;2022-08-25T00:31:18;23.50;99.90
10964;DHT22;5534;48.784;9.190;2022-08-25T00:33:46;23.40;99.90
10964;DHT22;5534;48.784;9.190;2022-08-25T00:36:13;23.20;99.90
10964;DHT22;5534;48.784;9.190;2022-08-25T00:38:42;22.90;99.90
10964;DHT22;5534;48.784;9.190;2022-08-25T00:41:09;22.80;99.90
10964;DHT22;5534;48.784;9.190;2022-08-25T00:46:06;22.70;99.90
10964;DHT22;5534;48.784;9.190;2022-08-25T00:48:32;22.80;99.90
10964;DHT22;5534;48.784;9.190;2022-08-25T00:50:59;22.90;99.90
10964;DHT22;5534;48.784;9.190;2022-08-25T00:53:28;23.00;99.90
10964;DHT22;5534;48.784;9.190;2022-08-25T00:55:55;23.10;99.90
10964;DHT22;5534;48.784;9.190;2022-08-25T00:58:24;23.30;99.90
10964;DHT22;5534;48.784;9.190;2022-08-25T01:00:52;23.40;99.90
10964;DHT22;5534;48.784;9.190;2022-08-25T01:03:21;23.40;99.90
10964;DHT22;5534;48.784;9.190;2022-08-25T01:05:50;23.30;99.90
10964;DHT22;5534;48.784;9.190;2022-08-25T01:08:17;23.30;99.90
10964;DHT22;5534;48.784;9.190;2022-08-25T01:10:46;23.30;99.90
10964;DHT22;5534;48.784;9.190;2022-08-25T01:13:27;23.40;99.90
10964;DHT22;5534;48.784;9.190;2022-08-25T01:15:56;23.40;99.90
10964;DHT22;5534;48.784;9.190;2022-08-25T01:18:24;23.40;99.90
10964;DHT22;5534;48.784;9.190;2022-08-25T01:20:52;23.20;99.90
10964;DHT22;5534;48.784;9.190;2022-08-25T01:23:19;22.80;99.90
10964;DHT22;5534;48.784;9.190;2022-08-25T01:26:06;22.60;99.90
10964;DHT22;5534;48.784;9.190;2022-08-25T01:28:34;22.40;99.90
10964;DHT22;5534;48.784;9.190;2022-08-25T01:30:59;22.20;99.90
10964;DHT22;5534;48.784;9.190;2022-08-25T01:33:25;22.10;99.90
10964;DHT22;5534;48.784;9.190;2022-08-25T01:35:51;22.00;99.90
10964;DHT22;5534;48.784;9.190;2022-08-25T01:38:17;21.90;99.90
10964;DHT22;5534;48.784;9.190;2022-08-25T01:40:45;21.80;99.90
10964;DHT22;5534;48.784;9.190;2022-08-25T01:43:35;21.80;99.90
10964;DHT22;5534;48.784;9.190;2022-08-25T01:46:01;21.80;99.90
10964;DHT22;5534;48.784;9.190;2022-08-25T01:48:27;21.70;99.90
10964;DHT22;5534;48.784;9.190;2022-08-25T01:50:53;21.90;99.90
10964;DHT22;5534;48.784;9.190;2022-08-25T01:53:23;21.90;99.90
10964;DHT22;5534;48.784;9.190;2022-08-25T01:55:50;22.10;99.90
10964;DHT22;5534;48.784;9.190;2022-08-25T02:00:47;22.20;99.90
10964;DHT22;5534;48.784;9.190;2022-08-25T02:03:14;22.30;99.90
10964;DHT22;5534;48.784;9.190;2022-08-25T02:05:40;22.30;99.90
10964;DHT22;5534;48.784;9.190;2022-08-25T02:08:07;22.10;99.90
10964;DHT22;5534;48.784;9.190;2022-08-25T02:10:33;22.20;99.90
10964;DHT22;5534;48.784;9.190;2022-08-25T02:12:59;22.40;99.90
10964;DHT22;5534;48.784;9.190;2022-08-25T02:15:25;22.60;99.90
10964;DHT22;5534;48.784;9.190;2022-08-25T02:17:51;22.60;99.90
10964;DHT22;5534;48.784;9.190;2022-08-25T02:20:17;22.50;99.90
10964;DHT22;5534;48.784;9.190;2022-08-25T02:22:43;22.60;99.90
10964;DHT22;5534;48.784;9.190;2022-08-25T02:25:09;22.50;99.90
10964;DHT22;5534;48.784;9.190;2022-08-25T02:27:38;22.40;99.90
10964;DHT22;5534;48.784;9.190;2022-08-25T02:30:04;22.50;99.90
10964;DHT22;5534;48.784;9.190;2022-08-25T02:32:30;22.60;99.90
10964;DHT22;5534;48.784;9.190;2022-08-25T02:34:56;22.50;99.90
10964;DHT22;5534;48.784;9.190;2022-08-25T02:37:21;22.50;99.90
10964;DHT22;5534;48.784;9.190;2022-08-25T02:39:47;22.50;99.90
10964;DHT22;5534;48.784;9.190;2022-08-25T02:42:13;22.60;99.90
10964;DHT22;5534;48.784;9.190;2022-08-25T02:44:39;22.80;99.90
10964;DHT22;5534;48.784;9.190;2022-08-25T02:47:05;22.60;99.90
10964;DHT22;5534;48.784;9.190;2022-08-25T02:49:31;22.60;99.90
10964;DHT22;5534;48.784;9.190;2022-08-25T02:51:57;22.40;99.90
10964;DHT22;5534;48.784;9.190;2022-08-25T02:54:26;22.60;99.90
10964;DHT22;5534;48.784;9.190;2022-08-25T02:56:51;22.70;99.90
10964;DHT22;5534;48.784;9.190;2022-08-25T02:59:18;22.60;99.90
10964;DHT22;5534;48.784;9.190;2022-08-25T03:01:44;22.50;99.90
10964;DHT22;5534;48.784;9.190;2022-08-25T03:04:10;22.50;99.90
10964;DHT22;5534;48.784;9.190;2022-08-25T03:06:36;22.40;99.90
10964;DHT22;5534;48.784;9.190;2022-08-25T03:09:02;22.40;99.90
10964;DHT22;5534;48.784;9.190;2022-08-25T03:11:29;22.40;99.90
10964;DHT22;5534;48.784;9.190;2022-08-25T03:13:55;22.40;99.90
10964;DHT22;5534;48.784;9.190;2022-08-25T03:16:21;22.30;99.90
10964;DHT22;5534;48.784;9.190;2022-08-25T03:18:48;22.30;99.90
10964;DHT22;5534;48.784;9.190;2022-08-25T03:21:14;22.40;99.90
10964;DHT22;5534;48.784;9.190;2022-08-25T03:23:40;22.40;99.90
10964;DHT22;5534;48.784;9.190;2022-08-25T03:26:07;22.30;99.90
10964;DHT22;5534;48.784;9.190;2022-08-25T03:28:51;22.30;99.90
10964;DHT22;5534;48.784;9.190;2022-08-25T03:31:23;22.20;99.90
10964;DHT22;5534;48.784;9.190;2022-08-25T03:33:52;22.40;99.90
10964;DHT22;5534;48.784;9.190;2022-08-25T03:36:18;22.50;99.90
10964;DHT22;5534;48.784;9.190;2022-08-25T03:38:44;22.40;99.90
10964;DHT22;5534;48.784;9.190;2022-08-25T03:41:23;22.40;99.90
10964;DHT22;5534;48.784;9.190;2022-08-25T03:43:49;22.20;99.90
10964;DHT22;5534;48.784;9.190;2022-08-25T03:46:27;22.10;99.90
10964;DHT22;5534;48.784;9.190;2022-08-25T03:48:53;22.00;99.90
10964;DHT22;5534;48.784;9.190;2022-08-25T03:51:28;22.20;99.90
10964;DHT22;5534;48.784;9.190;2022-08-25T03:53:54;22.30;99.90
10964;DHT22;5534;48.784;9.190;2022-08-25T03:56:21;22.20;99.90
10964;DHT22;5534;48.784;9.190;2022-08-25T03:58:47;22.10;99.90
10964;DHT22;5534;48.784;9.190;2022-08-25T04:01:14;22.10;99.90
10964;DHT22;5534;48.784;9.190;2022-08-25T04:03:40;22.30;99.90
10964;DHT22;5534;48.784;9.190;2022-08-25T04:06:06;22.40;99.90
10964;DHT22;5534;48.784;9.190;2022-08-25T04:08:33;22.30;99.90
10964;DHT22;5534;48.784;9.190;2022-08-25T04:11:08;22.40;99.90
10964;DHT22;5534;48.784;9.190;2022-08-25T04:13:34;22.40;99.90
10964;DHT22;5534;48.784;9.190;2022-08-25T04:16:01;22.30;99.90
10964;DHT22;5534;48.784;9.190;2022-08-25T04:18:27;22.30;99.90
10964;DHT22;5534;48.784;9.190;2022-08-25T04:21:03;22.20;99.90
10964;DHT22;5534;48.784;9.190;2022-08-25T04:23:31;22.00;99.90
10964;DHT22;5534;48.784;9.190;2022-08-25T04:25:57;21.80;99.90
10964;DHT22;5534;48.784;9.190;2022-08-25T04:28:23;21.90;99.90
10964;DHT22;5534;48.784;9.190;2022-08-25T04:30:49;21.80;99.90
10964;DHT22;5534;48.784;9.190;2022-08-25T04:33:16;22.00;99.90
10964;DHT22;5534;48.784;9.190;2022-08-25T04:35:47;21.60;99.90
10964;DHT22;5534;48.784;9.190;2022-08-25T04:38:13;21.60;99.90
10964;DHT22;5534;48.784;9.190;2022-08-25T04:40:39;21.70;99.90
10964;DHT22;5534;48.784;9.190;2022-08-25T04:43:05;21.80;99.90
10964;DHT22;5534;48.784;9.190;2022-08-25T04:45:31;21.80;99.90
10964;DHT22;5534;48.784;9.190;2022-08-25T04:48:00;21.80;99.90
10964;DHT22;5534;48.784;9.190;2022-08-25T04:50:26;21.90;99.90
10964;DHT22;5534;48.784;9.190;2022-08-25T04:52:54;22.10;99.90
10964;DHT22;5534;48.784;9.190;2022-08-25T04:55:20;22.10;99.90
10964;DHT22;5534;48.784;9.190;2022-08-25T04:57:46;22.10;99.90
10964;DHT22;5534;48.784;9.190;2022-08-25T05:00:13;22.10;99.90
10964;DHT22;5534;48.784;9.190;2022-08-25T05:02:42;22.10;99.90
10964;DHT22;5534;48.784;9.190;2022-08-25T05:05:07;22.20;99.90
10964;DHT22;5534;48.784;9.190;2022-08-25T05:07:33;22.20;99.90
10964;DHT22;5534;48.784;9.190;2022-08-25T05:10:01;22.20;99.90
10964;DHT22;5534;48.784;9.190;2022-08-25T05:12:27;22.10;99.90
10964;DHT22;5534;48.784;9.190;2022-08-25T05:14:56;22.10;99.90
10964;DHT22;5534;48.784;9.190;2022-08-25T05:17:42;22.10;99.90
10964;DHT22;5534;48.784;9.190;2022-08-25T05:20:08;22.00;99.90
10964;DHT22;5534;48.784;9.190;2022-08-25T05:22:34;22.00;99.90
10964;DHT22;5534;48.784;9.190;2022-08-25T05:25:00;22.00;99.90
10964;DHT22;5534;48.784;9.190;2022-08-25T05:27:25;22.00;99.90
10964;DHT22;5534;48.784;9.190;2022-08-25T05:29:52;22.00;99.90
10964;DHT22;5534;48.784;9.190;2022-08-25T05:32:18;21.80;99.90
10964;DHT22;5534;48.784;9.190;2022-08-25T05:34:43;22.00;99.90
10964;DHT22;5534;48.784;9.190;2022-08-25T05:37:09;22.00;99.90
10964;DHT22;5534;48.784;9.190;2022-08-25T05:39:35;22.10;99.90
10964;DHT22;5534;48.784;9.190;2022-08-25T05:42:01;22.10;99.90
10964;DHT22;5534;48.784;9.190;2022-08-25T05:44:27;22.00;99.90
10964;DHT22;5534;48.784;9.190;2022-08-25T05:46:52;21.90;99.90
10964;DHT22;5534;48.784;9.190;2022-08-25T05:49:18;21.90;99.90
10964;DHT22;5534;48.784;9.190;2022-08-25T05:51:44;21.90;99.90
10964;DHT22;5534;48.784;9.190;2022-08-25T05:54:10;21.60;99.90
10964;DHT22;5534;48.784;9.190;2022-08-25T05:56:36;21.80;99.90
10964;DHT22;5534;48.784;9.190;2022-08-25T05:59:06;21.80;99.90
10964;DHT22;5534;48.784;9.190;2022-08-25T06:01:32;21.90;99.90
10964;DHT22;5534;48.784;9.190;2022-08-25T06:04:16;22.10;99.90
10964;DHT22;5534;48.784;9.190;2022-08-25T06:06:45;22.10;99.90
10964;DHT22;5534;48.784;9.190;2022-08-25T06:09:14;22.10;99.90
10964;DHT22;5534;48.784;9.190;2022-08-25T06:11:40;21.70;99.90
10964;DHT22;5534;48.784;9.190;2022-08-25T06:14:08;21.90;99.90
10964;DHT22;5534;48.784;9.190;2022-08-25T06:16:33;22.00;99.90
10964;DHT22;5534;48.784;9.190;2022-08-25T06:18:59;22.00;99.90
10964;DHT22;5534;48.784;9.190;2022-08-25T06:21:26;22.10;99.90
10964;DHT22;5534;48.784;9.190;2022-08-25T06:23:51;22.10;99.90
10964;DHT22;5534;48.784;9.190;2022-08-25T06:26:17;22.00;99.90
10964;DHT22;5534;48.784;9.190;2022-08-25T06:28:43;22.10;99.90
10964;DHT22;5534;48.784;9.190;2022-08-25T06:31:09;22.10;99.90
10964;DHT22;5534;48.784;9.190;2022-08-25T06:33:34;22.10;99.90
10964;DHT22;5534;48.784;9.190;2022-08-25T06:36:00;22.20;99.90
10964;DHT22;5534;48.784;9.190;2022-08-25T06:38:26;22.20;99.90
10964;DHT22;5534;48.784;9.190;2022-08-25T06:40:52;22.30;99.90
10964;DHT22;5534;48.784;9.190;2022-08-25T06:43:19;22.30;99.90
10964;DHT22;5534;48.784;9.190;2022-08-25T06:45:45;22.30;99.90
10964;DHT22;5534;48.784;9.190;2022-08-25T06:48:11;22.30;99.90
10964;DHT22;5534;48.784;9.190;2022-08-25T06:50:38;22.30;99.90
10964;DHT22;5534;48.784;9.190;2022-08-25T06:53:04;22.30;99.90
10964;DHT22;5534;48.784;9.190;2022-08-25T06:55:30;22.30;99.90
10964;DHT22;5534;48.784;9.190;2022-08-25T06:57:56;22.30;99.90
10964;DHT22;5534;48.784;9.190;2022-08-25T07:00:22;22.50;99.90
10964;DHT22;5534;48.784;9.190;2022-08-25T07:02:48;22.40;99.90
10964;DHT22;5534;48.784;9.190;2022-08-25T07:05:16;22.50;99.90
10964;DHT22;5534;48.784;9.190;2022-08-25T07:07:43;22.80;99.90
10964;DHT22;5534;48.784;9.190;2022-08-25T07:10:11;23.00;99.90
10964;DHT22;5534;48.784;9.190;2022-08-25T07:12:38;23.40;99.90
10964;DHT22;5534;48.784;9.190;2022-08-25T07:15:04;23.90;99.90
10964;DHT22;5534;48.784;9.190;2022-08-25T07:17:30;24.40;99.90
10964;DHT22;5534;48.784;9.190;2022-08-25T07:19:56;24.90;99.90
10964;DHT22;5534;48.784;9.190;2022-08-25T07:22:22;25.50;99.90
10964;DHT22;5534;48.784;9.190;2022-08-25T07:24:47;25.90;99.90
10964;DHT22;5534;48.784;9.190;2022-08-25T07:27:13;26.10;99.90
10964;DHT22;5534;48.784;9.190;2022-08-25T07:29:40;26.30;99.90
10964;DHT22;5534;48.784;9.190;2022-08-25T07:32:05;26.50;99.90
10964;DHT22;5534;48.784;9.190;2022-08-25T07:34:32;26.80;99.90
10964;DHT22;5534;48.784;9.190;2022-08-25T07:37:17;26.80;99.90
10964;DHT22;5534;48.784;9.190;2022-08-25T07:39:43;27.00;99.90
10964;DHT22;5534;48.784;9.190;2022-08-25T07:42:10;27.10;99.90
10964;DHT22;5534;48.784;9.190;2022-08-25T07:44:36;27.30;99.90
10964;DHT22;5534;48.784;9.190;2022-08-25T07:47:02;27.50;99.90
10964;DHT22;5534;48.784;9.190;2022-08-25T07:49:29;27.70;99.90
10964;DHT22;5534;48.784;9.190;2022-08-25T07:51:55;27.70;99.90
10964;DHT22;5534;48.784;9.190;2022-08-25T07:54:21;27.80;99.90
10964;DHT22;5534;48.784;9.190;2022-08-25T07:56:47;28.00;99.90
10964;DHT22;5534;48.784;9.190;2022-08-25T07:59:13;28.10;99.90
10964;DHT22;5534;48.784;9.190;2022-08-25T08:01:39;28.20;99.90
10964;DHT22;5534;48.784;9.190;2022-08-25T08:04:05;28.20;99.90
10964;DHT22;5534;48.784;9.190;2022-08-25T08:06:31;28.20;99.90
10964;DHT22;5534;48.784;9.190;2022-08-25T08:08:57;28.50;99.90
10964;DHT22;5534;48.784;9.190;2022-08-25T08:11:27;28.70;99.90
10964;DHT22;5534;48.784;9.190;2022-08-25T08:13:55;28.50;99.90
10964;DHT22;5534;48.784;9.190;2022-08-25T08:16:26;28.60;99.90
10964;DHT22;5534;48.784;9.190;2022-08-25T08:18:52;28.60;99.90
10964;DHT22;5534;48.784;9.190;2022-08-25T08:21:21;28.50;99.90
10964;DHT22;5534;48.784;9.190;2022-08-25T08:23:51;28.30;99.90
10964;DHT22;5534;48.784;9.190;2022-08-25T08:26:18;28.30;99.90
10964;DHT22;5534;48.784;9.190;2022-08-25T08:28:44;28.10;99.90
10964;DHT22;5534;48.784;9.190;2022-08-25T08:31:11;27.80;99.90
10964;DHT22;5534;48.784;9.190;2022-08-25T08:33:39;27.50;99.90
10964;DHT22;5534;48.784;9.190;2022-08-25T08:36:08;27.20;99.90
10964;DHT22;5534;48.784;9.190;2022-08-25T08:38:39;27.30;99.90
10964;DHT22;5534;48.784;9.190;2022-08-25T08:41:48;27.30;99.90
10964;DHT22;5534;48.784;9.190;2022-08-25T08:50:42;27.80;99.90
10964;DHT22;5534;48.784;9.190;2022-08-25T08:52:55;27.70;99.90
10964;DHT22;5534;48.784;9.190;2022-08-25T08:57:50;27.50;99.90
10964;DHT22;5534;48.784;9.190;2022-08-25T09:00:17;27.40;99.90
10964;DHT22;5534;48.784;9.190;2022-08-25T09:02:58;27.40;99.90
10964;DHT22;5534;48.784;9.190;2022-08-25T09:05:28;27.50;99.90
10964;DHT22;5534;48.784;9.190;2022-08-25T09:08:03;27.40;99.90
10964;DHT22;5534;48.784;9.190;2022-08-25T09:16:38;27.40;99.90
10964;DHT22;5534;48.784;9.190;2022-08-25T09:22:13;27.80;99.90
10964;DHT22;5534;48.784;9.190;2022-08-25T09:30:15;27.70;99.90
10964;DHT22;5534;48.784;9.190;2022-08-25T09:32:47;27.70;99.90
10964;DHT22;5534;48.784;9.190;2022-08-25T09:35:34;27.70;99.90
10964;DHT22;5534;48.784;9.190;2022-08-25T09:38:06;27.60;99.90
10964;DHT22;5534;48.784;9.190;2022-08-25T09:40:37;27.70;99.90
10964;DHT22;5534;48.784;9.190;2022-08-25T09:43:08;27.70;99.90
10964;DHT22;5534;48.784;9.190;2022-08-25T09:45:45;27.70;99.90
10964;DHT22;5534;48.784;9.190;2022-08-25T09:48:32;27.80;99.90
10964;DHT22;5534;48.784;9.190;2022-08-25T09:53:47;27.90;99.90
10964;DHT22;5534;48.784;9.190;2022-08-25T09:56:19;28.00;99.90
10964;DHT22;5534;48.784;9.190;2022-08-25T09:58:45;28.10;99.90
10964;DHT22;5534;48.784;9.190;2022-08-25T10:01:22;28.10;99.90
10964;DHT22;5534;48.784;9.190;2022-08-25T10:04:04;28.00;99.90
10964;DHT22;5534;48.784;9.190;2022-08-25T10:06:50;27.80;99.90
10964;DHT22;5534;48.784;9.190;2022-08-25T10:09:37;27.70;99.90
10964;DHT22;5534;48.784;9.190;2022-08-25T10:12:22;27.70;99.90
10964;DHT22;5534;48.784;9.190;2022-08-25T10:14:50;27.80;99.90
10964;DHT22;5534;48.784;9.190;2022-08-25T10:19:51;27.70;99.90
10964;DHT22;5534;48.784;9.190;2022-08-25T10:22:25;27.70;99.90
10964;DHT22;5534;48.784;9.190;2022-08-25T10:24:58;27.70;99.90
10964;DHT22;5534;48.784;9.190;2022-08-25T10:27:34;27.80;99.90
10964;DHT22;5534;48.784;9.190;2022-08-25T10:30:23;28.00;99.90
10964;DHT22;5534;48.784;9.190;2022-08-25T10:36:07;28.00;99.90
10964;DHT22;5534;48.784;9.190;2022-08-25T10:38:44;28.10;99.90
10964;DHT22;5534;48.784;9.190;2022-08-25T10:44:20;28.10;99.90
10964;DHT22;5534;48.784;9.190;2022-08-25T10:53:12;28.50;99.90
10964;DHT22;5534;48.784;9.190;2022-08-25T10:58:30;28.70;99.90
10964;DHT22;5534;48.784;9.190;2022-08-25T11:04:03;28.80;99.90
10964;DHT22;5534;48.784;9.190;2022-08-25T11:06:49;28.90;99.90
10964;DHT22;5534;48.784;9.190;2022-08-25T11:09:20;28.80;99.90
10964;DHT22;5534;48.784;9.190;2022-08-25T11:11:58;28.70;99.90
10964;DHT22;5534;48.784;9.190;2022-08-25T11:17:09;28.60;99.90
10964;DHT22;5534;48.784;9.190;2022-08-25T11:19:39;28.60;99.90
10964;DHT22;5534;48.784;9.190;2022-08-25T11:27:54;28.80;99.10
10964;DHT22;5534;48.784;9.190;2022-08-25T11:30:23;28.90;98.70
10964;DHT22;5534;48.784;9.190;2022-08-25T11:32:51;29.00;98.40
10964;DHT22;5534;48.784;9.190;2022-08-25T11:35:41;29.00;98.60
10964;DHT22;5534;48.784;9.190;2022-08-25T11:41:26;29.30;97.90
10964;DHT22;5534;48.784;9.190;2022-08-25T11:44:28;29.10;98.20
10964;DHT22;5534;48.784;9.190;2022-08-25T11:52:40;29.20;97.80
10964;DHT22;5534;48.784;9.190;2022-08-25T12:01:00;29.30;97.00
10964;DHT22;5534;48.784;9.190;2022-08-25T12:06:15;29.30;96.30
10964;DHT22;5534;48.784;9.190;2022-08-25T12:09:33;29.40;96.30
10964;DHT22;5534;48.784;9.190;2022-08-25T12:11:56;29.50;95.80
10964;DHT22;5534;48.784;9.190;2022-08-25T12:29:57;29.40;95.90
10964;DHT22;5534;48.784;9.190;2022-08-25T12:38:13;29.40;95.30
10964;DHT22;5534;48.784;9.190;2022-08-25T12:43:20;29.60;94.20
10964;DHT22;5534;48.784;9.190;2022-08-25T12:45:48;29.60;94.50
10964;DHT22;5534;48.784;9.190;2022-08-25T12:51:17;29.60;94.50
10964;DHT22;5534;48.784;9.190;2022-08-25T12:53:53;29.80;94.40
10964;DHT22;5534;48.784;9.190;2022-08-25T12:59:15;29.90;94.00
10964;DHT22;5534;48.784;9.190;2022-08-25T13:02:05;30.10;93.70
10964;DHT22;5534;48.784;9.190;2022-08-25T13:15:44;30.20;93.00
10964;DHT22;5534;48.784;9.190;2022-08-25T13:18:21;30.00;93.10
10964;DHT22;5534;48.784;9.190;2022-08-25T13:21:34;30.00;93.30
10964;DHT22;5534;48.784;9.190;2022-08-25T13:23:41;30.00;92.90
10964;DHT22;5534;48.784;9.190;2022-08-25T13:26:15;30.10;93.10
10964;DHT22;5534;48.784;9.190;2022-08-25T13:28:42;30.20;93.20
10964;DHT22;5534;48.784;9.190;2022-08-25T13:31:15;30.30;92.90
10964;DHT22;5534;48.784;9.190;2022-08-25T13:33:54;30.20;92.70
10964;DHT22;5534;48.784;9.190;2022-08-25T13:36:20;30.10;93.20
10964;DHT22;5534;48.784;9.190;2022-08-25T13:39:15;30.20;92.70
10964;DHT22;5534;48.784;9.190;2022-08-25T13:41:50;30.20;92.30
10964;DHT22;5534;48.784;9.190;2022-08-25T13:44:18;30.30;92.40
10964;DHT22;5534;48.784;9.190;2022-08-25T13:46:45;30.30;91.90
10964;DHT22;5534;48.784;9.190;2022-08-25T13:49:12;30.30;91.70
10964;DHT22;5534;48.784;9.190;2022-08-25T13:51:51;30.30;91.50
10964;DHT22;5534;48.784;9.190;2022-08-25T13:54:30;30.20;91.90
10964;DHT22;5534;48.784;9.190;2022-08-25T13:57:24;30.20;92.00
10964;DHT22;5534;48.784;9.190;2022-08-25T14:00:03;30.20;92.20
10964;DHT22;5534;48.784;9.190;2022-08-25T14:02:50;30.20;92.50
10964;DHT22;5534;48.784;9.190;2022-08-25T14:05:41;30.20;92.50
10964;DHT22;5534;48.784;9.190;2022-08-25T14:08:30;30.20;92.40
10964;DHT22;5534;48.784;9.190;2022-08-25T14:14:00;30.40;92.10
10964;DHT22;5534;48.784;9.190;2022-08-25T14:16:27;30.40;91.70
10964;DHT22;5534;48.784;9.190;2022-08-25T14:18:57;30.50;91.60
10964;DHT22;5534;48.784;9.190;2022-08-25T14:21:26;30.40;91.50
10964;DHT22;5534;48.784;9.190;2022-08-25T14:23:53;30.20;91.60
10964;DHT22;5534;48.784;9.190;2022-08-25T14:26:19;30.10;91.50
10964;DHT22;5534;48.784;9.190;2022-08-25T14:28:45;29.90;91.80
10964;DHT22;5534;48.784;9.190;2022-08-25T14:31:14;29.90;91.90
10964;DHT22;5534;48.784;9.190;2022-08-25T14:33:52;29.90;92.10
10964;DHT22;5534;48.784;9.190;2022-08-25T14:36:18;29.90;92.20
10964;DHT22;5534;48.784;9.190;2022-08-25T14:38:44;29.90;92.30
10964;DHT22;5534;48.784;9.190;2022-08-25T14:41:10;30.00;92.30
10964;DHT22;5534;48.784;9.190;2022-08-25T14:43:36;30.00;92.30
10964;DHT22;5534;48.784;9.190;2022-08-25T14:46:20;30.00;92.30
10964;DHT22;5534;48.784;9.190;2022-08-25T14:48:49;30.00;92.00
10964;DHT22;5534;48.784;9.190;2022-08-25T14:51:19;30.00;91.80
10964;DHT22;5534;48.784;9.190;2022-08-25T14:53:45;30.10;92.10
10964;DHT22;5534;48.784;9.190;2022-08-25T14:56:11;30.00;91.80
10964;DHT22;5534;48.784;9.190;2022-08-25T14:58:38;30.10;91.70
10964;DHT22;5534;48.784;9.190;2022-08-25T15:01:04;30.00;91.90
10964;DHT22;5534;48.784;9.190;2022-08-25T15:03:36;30.10;92.10
10964;DHT22;5534;48.784;9.190;2022-08-25T15:06:03;30.10;91.60
10964;DHT22;5534;48.784;9.190;2022-08-25T15:08:29;30.10;91.60
10964;DHT22;5534;48.784;9.190;2022-08-25T15:11:14;30.10;91.70
10964;DHT22;5534;48.784;9.190;2022-08-25T15:13:41;30.10;91.50
10964;DHT22;5534;48.784;9.190;2022-08-25T15:16:09;30.10;91.20
10964;DHT22;5534;48.784;9.190;2022-08-25T15:18:35;30.00;91.80
10964;DHT22;5534;48.784;9.190;2022-08-25T15:21:01;30.00;92.20
10964;DHT22;5534;48.784;9.190;2022-08-25T15:23:27;29.90;92.10
10964;DHT22;5534;48.784;9.190;2022-08-25T15:25:54;29.90;92.00
10964;DHT22;5534;48.784;9.190;2022-08-25T15:28:21;29.90;92.20
10964;DHT22;5534;48.784;9.190;2022-08-25T15:30:49;29.80;92.30
10964;DHT22;5534;48.784;9.190;2022-08-25T15:33:15;29.70;92.30
10964;DHT22;5534;48.784;9.190;2022-08-25T15:35:42;29.60;92.70
10964;DHT22;5534;48.784;9.190;2022-08-25T15:38:08;29.50;92.90
10964;DHT22;5534;48.784;9.190;2022-08-25T15:40:34;29.50;92.80
10964;DHT22;5534;48.784;9.190;2022-08-25T15:43:03;29.50;92.80
10964;DHT22;5534;48.784;9.190;2022-08-25T15:45:30;29.50;92.80
10964;DHT22;5534;48.784;9.190;2022-08-25T15:47:56;29.50;92.60
10964;DHT22;5534;48.784;9.190;2022-08-25T15:50:22;29.50;92.70
10964;DHT22;5534;48.784;9.190;2022-08-25T15:52:48;29.60;92.80
10964;DHT22;5534;48.784;9.190;2022-08-25T15:55:15;29.60;92.30
10964;DHT22;5534;48.784;9.190;2022-08-25T15:57:42;29.50;92.50
10964;DHT22;5534;48.784;9.190;2022-08-25T16:00:09;29.40;92.60
10964;DHT22;5534;48.784;9.190;2022-08-25T16:02:37;29.50;92.60
10964;DHT22;5534;48.784;9.190;2022-08-25T16:05:05;29.50;92.30
10964;DHT22;5534;48.784;9.190;2022-08-25T16:07:31;29.40;92.70
10964;DHT22;5534;48.784;9.190;2022-08-25T16:09:57;29.50;92.50
10964;DHT22;5534;48.784;9.190;2022-08-25T16:12:24;29.40;93.90
10964;DHT22;5534;48.784;9.190;2022-08-25T16:14:50;29.30;93.40
10964;DHT22;5534;48.784;9.190;2022-08-25T16:17:17;29.30;93.20
10964;DHT22;5534;48.784;9.190;2022-08-25T16:19:44;29.30;93.20
10964;DHT22;5534;48.784;9.190;2022-08-25T16:22:10;29.20;93.00
10964;DHT22;5534;48.784;9.190;2022-08-25T16:24:40;29.20;93.00
10964;DHT22;5534;48.784;9.190;2022-08-25T16:27:09;29.20;93.30
10964;DHT22;5534;48.784;9.190;2022-08-25T16:29:37;29.20;93.30
10964;DHT22;5534;48.784;9.190;2022-08-25T16:32:07;29.10;93.30
10964;DHT22;5534;48.784;9.190;2022-08-25T16:34:33;29.20;93.40
10964;DHT22;5534;48.784;9.190;2022-08-25T16:37:00;29.10;93.60
10964;DHT22;5534;48.784;9.190;2022-08-25T16:39:26;29.30;93.20
10964;DHT22;5534;48.784;9.190;2022-08-25T16:41:52;29.20;94.40
10964;DHT22;5534;48.784;9.190;2022-08-25T16:44:19;29.20;93.30
10964;DHT22;5534;48.784;9.190;2022-08-25T16:46:47;29.20;93.60
10964;DHT22;5534;48.784;9.190;2022-08-25T16:49:13;29.20;93.30
10964;DHT22;5534;48.784;9.190;2022-08-25T16:51:50;29.20;94.30
10964;DHT22;5534;48.784;9.190;2022-08-25T16:54:15;29.10;94.60
10964;DHT22;5534;48.784;9.190;2022-08-25T16:57:00;29.00;94.20
10964;DHT22;5534;48.784;9.190;2022-08-25T16:59:26;29.00;94.40
10964;DHT22;5534;48.784;9.190;2022-08-25T17:02:10;29.00;94.40
10964;DHT22;5534;48.784;9.190;2022-08-25T17:04:39;29.00;93.90
10964;DHT22;5534;48.784;9.190;2022-08-25T17:07:05;29.00;94.20
10964;DHT22;5534;48.784;9.190;2022-08-25T17:09:31;28.90;94.20
10964;DHT22;5534;48.784;9.190;2022-08-25T17:11:57;28.90;93.90
10964;DHT22;5534;48.784;9.190;2022-08-25T17:14:23;28.80;94.60
10964;DHT22;5534;48.784;9.190;2022-08-25T17:16:51;29.00;93.70
10964;DHT22;5534;48.784;9.190;2022-08-25T17:19:20;28.90;94.50
10964;DHT22;5534;48.784;9.190;2022-08-25T17:21:47;28.80;94.20
10964;DHT22;5534;48.784;9.190;2022-08-25T17:24:13;28.90;94.10
10964;DHT22;5534;48.784;9.190;2022-08-25T17:26:42;28.90;94.10
10964;DHT22;5534;48.784;9.190;2022-08-25T17:29:11;28.80;94.20
10964;DHT22;5534;48.784;9.190;2022-08-25T17:31:37;28.80;94.80
10964;DHT22;5534;48.784;9.190;2022-08-25T17:34:05;28.80;94.60
10964;DHT22;5534;48.784;9.190;2022-08-25T17:36:39;28.70;94.40
10964;DHT22;5534;48.784;9.190;2022-08-25T17:39:06;28.90;94.00
10964;DHT22;5534;48.784;9.190;2022-08-25T17:41:36;28.80;94.10
10964;DHT22;5534;48.784;9.190;2022-08-25T17:44:02;28.80;94.30
10964;DHT22;5534;48.784;9.190;2022-08-25T17:46:29;28.70;94.60
10964;DHT22;5534;48.784;9.190;2022-08-25T17:48:54;28.60;94.80
10964;DHT22;5534;48.784;9.190;2022-08-25T17:51:20;28.50;95.20
10964;DHT22;5534;48.784;9.190;2022-08-25T17:53:48;28.40;95.10
10964;DHT22;5534;48.784;9.190;2022-08-25T17:56:19;28.30;95.40
10964;DHT22;5534;48.784;9.190;2022-08-25T17:58:48;28.30;95.10
10964;DHT22;5534;48.784;9.190;2022-08-25T18:01:20;28.20;95.40